sensor_id;sensor_type;location;lat;lon;timestamp;P1;durP1;ratioP1;P2;durP2;ratioP2
2866;SDS011;1441;48.886;8.728;2023-09-12T00:00:48;10.20;;;6.53;;
2866;SDS011;1441;48.886;8.728;2023-09-12T00:03:13;11.10;;;6.90;;
2866;SDS011;1441;48.886;8.728;2023-09-12T00:05:39;13.03;;;7.10;;
2866;SDS011;1441;48.886;8.728;2023-09-12T00:08:05;12.27;;;6.30;;
2866;SDS011;1441;48.886;8.728;2023-09-12T00:10:31;8.70;;;6.97;;
2866;SDS011;1441;48.886;8.728;2023-09-12T00:12:57;16.67;;;6.90;;
2866;SDS011;1441;48.886;8.728;2023-09-12T00:15:25;9.73;;;6.57;;
2866;SDS011;1441;48.886;8.728;2023-09-12T00:17:51;8.00;;;6.33;;
2866;SDS011;1441;48.886;8.728;2023-09-12T00:20:16;15.60;;;7.30;;
2866;SDS011;1441;48.886;8.728;2023-09-12T00:22:42;11.53;;;7.07;;
2866;SDS011;1441;48.886;8.728;2023-09-12T00:25:07;11.10;;;6.87;;
2866;SDS011;1441;48.886;8.728;2023-09-12T00:27:33;11.83;;;7.30;;
2866;SDS011;1441;48.886;8.728;2023-09-12T00:29:59;14.90;;;7.20;;
2866;SDS011;1441;48.886;8.728;2023-09-12T00:32:24;9.80;;;6.90;;
2866;SDS011;1441;48.886;8.728;2023-09-12T00:34:50;10.80;;;6.90;;
2866;SDS011;1441;48.886;8.728;2023-09-12T00:37:15;9.70;;;7.23;;
2866;SDS011;1441;48.886;8.728;2023-09-12T00:39:41;10.97;;;6.93;;
2866;SDS011;1441;48.886;8.728;2023-09-12T00:42:06;14.77;;;6.90;;
2866;SDS011;1441;48.886;8.728;2023-09-12T00:44:32;10.20;;;7.13;;
2866;SDS011;1441;48.886;8.728;2023-09-12T00:46:58;13.43;;;6.90;;
2866;SDS011;1441;48.886;8.728;2023-09-12T00:49:26;8.77;;;7.13;;
2866;SDS011;1441;48.886;8.728;2023-09-12T00:51:53;12.70;;;7.37;;
2866;SDS011;1441;48.886;8.728;2023-09-12T00:54:21;11.43;;;7.33;;
2866;SDS011;1441;48.886;8.728;2023-09-12T00:56:46;8.80;;;7.07;;
2866;SDS011;1441;48.886;8.728;2023-09-12T00:59:12;12.00;;;7.83;;
2866;SDS011;1441;48.886;8.728;2023-09-12T01:01:40;13.50;;;7.03;;
2866;SDS011;1441;48.886;8.728;2023-09-12T01:04:06;10.60;;;7.03;;
2866;SDS011;1441;48.886;8.728;2023-09-12T01:06:32;11.20;;;7.60;;
2866;SDS011;1441;48.886;8.728;2023-09-12T01:08:59;14.10;;;7.27;;
2866;SDS011;1441;48.886;8.728;2023-09-12T01:11:25;10.03;;;7.67;;
2866;SDS011;1441;48.886;8.728;2023-09-12T01:13:52;9.70;;;6.93;;
2866;SDS011;1441;48.886;8.728;2023-09-12T01:16:17;10.30;;;6.53;;
2866;SDS011;1441;48.886;8.728;2023-09-12T01:18:43;10.53;;;7.40;;
2866;SDS011;1441;48.886;8.728;2023-09-12T01:23:44;12.97;;;7.67;;
2866;SDS011;1441;48.886;8.728;2023-09-12T01:29:12;9.40;;;7.00;;
2866;SDS011;1441;48.886;8.728;2023-09-12T01:31:39;11.60;;;7.87;;
2866;SDS011;1441;48.886;8.728;2023-09-12T01:34:09;10.87;;;7.90;;
2866;SDS011;1441;48.886;8.728;2023-09-12T01:36:35;11.87;;;7.40;;
2866;SDS011;1441;48.886;8.728;2023-09-12T01:39:01;14.03;;;8.67;;
2866;SDS011;1441;48.886;8.728;2023-09-12T01:41:27;12.00;;;7.60;;
2866;SDS011;1441;48.886;8.728;2023-09-12T01:43:56;11.10;;;7.50;;
2866;SDS011;1441;48.886;8.728;2023-09-12T01:46:22;12.10;;;6.77;;
2866;SDS011;1441;48.886;8.728;2023-09-12T01:48:49;9.73;;;7.40;;
2866;SDS011;1441;48.886;8.728;2023-09-12T01:51:16;17.97;;;7.50;;
2866;SDS011;1441;48.886;8.728;2023-09-12T01:53:44;10.40;;;6.63;;
2866;SDS011;1441;48.886;8.728;2023-09-12T01:56:11;9.37;;;6.60;;
2866;SDS011;1441;48.886;8.728;2023-09-12T01:58:38;11.60;;;6.33;;
2866;SDS011;1441;48.886;8.728;2023-09-12T02:01:04;10.17;;;7.47;;
2866;SDS011;1441;48.886;8.728;2023-09-12T02:03:30;9.13;;;7.60;;
2866;SDS011;1441;48.886;8.728;2023-09-12T02:05:55;13.97;;;6.50;;
2866;SDS011;1441;48.886;8.728;2023-09-12T02:08:21;11.97;;;6.77;;
2866;SDS011;1441;48.886;8.728;2023-09-12T02:10:47;8.37;;;6.60;;
2866;SDS011;1441;48.886;8.728;2023-09-12T02:13:12;8.83;;;7.80;;
2866;SDS011;1441;48.886;8.728;2023-09-12T02:15:38;9.43;;;6.97;;
2866;SDS011;1441;48.886;8.728;2023-09-12T02:18:04;9.20;;;7.00;;
2866;SDS011;1441;48.886;8.728;2023-09-12T02:20:29;11.50;;;8.27;;
2866;SDS011;1441;48.886;8.728;2023-09-12T02:22:55;10.63;;;7.73;;
2866;SDS011;1441;48.886;8.728;2023-09-12T02:25:21;12.40;;;7.27;;
2866;SDS011;1441;48.886;8.728;2023-09-12T02:27:46;10.90;;;7.07;;
2866;SDS011;1441;48.886;8.728;2023-09-12T02:30:12;14.17;;;7.60;;
2866;SDS011;1441;48.886;8.728;2023-09-12T02:32:37;10.90;;;7.17;;
2866;SDS011;1441;48.886;8.728;2023-09-12T02:35:03;12.73;;;7.03;;
2866;SDS011;1441;48.886;8.728;2023-09-12T02:37:29;8.53;;;7.60;;
2866;SDS011;1441;48.886;8.728;2023-09-12T02:39:54;11.97;;;7.50;;
2866;SDS011;1441;48.886;8.728;2023-09-12T02:42:20;13.67;;;7.37;;
2866;SDS011;1441;48.886;8.728;2023-09-12T02:44:45;7.90;;;7.10;;
2866;SDS011;1441;48.886;8.728;2023-09-12T02:47:11;11.30;;;7.50;;
2866;SDS011;1441;48.886;8.728;2023-09-12T02:49:36;11.73;;;8.37;;
2866;SDS011;1441;48.886;8.728;2023-09-12T02:52:02;24.40;;;9.23;;
2866;SDS011;1441;48.886;8.728;2023-09-12T02:54:28;11.90;;;7.30;;
2866;SDS011;1441;48.886;8.728;2023-09-12T02:56:53;16.63;;;7.40;;
2866;SDS011;1441;48.886;8.728;2023-09-12T02:59:19;11.33;;;8.07;;
2866;SDS011;1441;48.886;8.728;2023-09-12T03:01:44;12.10;;;7.73;;
2866;SDS011;1441;48.886;8.728;2023-09-12T03:04:10;14.57;;;7.77;;
2866;SDS011;1441;48.886;8.728;2023-09-12T03:06:35;11.30;;;8.03;;
2866;SDS011;1441;48.886;8.728;2023-09-12T03:09:01;13.60;;;8.43;;
2866;SDS011;1441;48.886;8.728;2023-09-12T03:11:28;9.83;;;8.30;;
2866;SDS011;1441;48.886;8.728;2023-09-12T03:13:54;12.40;;;8.20;;
2866;SDS011;1441;48.886;8.728;2023-09-12T03:16:20;11.40;;;7.30;;
2866;SDS011;1441;48.886;8.728;2023-09-12T03:18:46;10.00;;;7.80;;
2866;SDS011;1441;48.886;8.728;2023-09-12T03:21:11;11.47;;;8.13;;
2866;SDS011;1441;48.886;8.728;2023-09-12T03:23:37;12.90;;;8.13;;
2866;SDS011;1441;48.886;8.728;2023-09-12T03:26:03;17.73;;;8.30;;
2866;SDS011;1441;48.886;8.728;2023-09-12T03:28:29;13.17;;;8.00;;
2866;SDS011;1441;48.886;8.728;2023-09-12T03:31:08;21.87;;;8.93;;
2866;SDS011;1441;48.886;8.728;2023-09-12T03:33:38;11.40;;;8.03;;
2866;SDS011;1441;48.886;8.728;2023-09-12T03:36:05;13.97;;;7.93;;
2866;SDS011;1441;48.886;8.728;2023-09-12T03:38:32;12.27;;;7.77;;
2866;SDS011;1441;48.886;8.728;2023-09-12T03:40:58;20.80;;;8.47;;
2866;SDS011;1441;48.886;8.728;2023-09-12T03:43:23;9.73;;;8.40;;
2866;SDS011;1441;48.886;8.728;2023-09-12T03:45:49;13.50;;;8.50;;
2866;SDS011;1441;48.886;8.728;2023-09-12T03:48:14;11.43;;;8.43;;
2866;SDS011;1441;48.886;8.728;2023-09-12T03:50:40;13.47;;;8.73;;
2866;SDS011;1441;48.886;8.728;2023-09-12T03:53:05;10.17;;;8.50;;
2866;SDS011;1441;48.886;8.728;2023-09-12T03:55:31;11.93;;;8.97;;
2866;SDS011;1441;48.886;8.728;2023-09-12T03:57:57;13.70;;;9.20;;
2866;SDS011;1441;48.886;8.728;2023-09-12T04:00:22;19.17;;;9.50;;
2866;SDS011;1441;48.886;8.728;2023-09-12T04:02:48;11.57;;;8.73;;
2866;SDS011;1441;48.886;8.728;2023-09-12T04:05:14;14.27;;;8.90;;
2866;SDS011;1441;48.886;8.728;2023-09-12T04:07:39;11.67;;;8.43;;
2866;SDS011;1441;48.886;8.728;2023-09-12T04:10:05;12.57;;;8.30;;
2866;SDS011;1441;48.886;8.728;2023-09-12T04:12:31;13.87;;;8.50;;
2866;SDS011;1441;48.886;8.728;2023-09-12T04:14:56;17.27;;;9.07;;
2866;SDS011;1441;48.886;8.728;2023-09-12T04:17:22;11.13;;;8.50;;
2866;SDS011;1441;48.886;8.728;2023-09-12T04:19:47;16.60;;;9.10;;
2866;SDS011;1441;48.886;8.728;2023-09-12T04:22:13;11.23;;;8.10;;
2866;SDS011;1441;48.886;8.728;2023-09-12T04:24:38;12.27;;;8.47;;
2866;SDS011;1441;48.886;8.728;2023-09-12T04:27:04;20.57;;;8.90;;
2866;SDS011;1441;48.886;8.728;2023-09-12T04:29:31;12.97;;;9.27;;
2866;SDS011;1441;48.886;8.728;2023-09-12T04:32:03;11.37;;;7.80;;
2866;SDS011;1441;48.886;8.728;2023-09-12T04:34:29;12.47;;;8.33;;
2866;SDS011;1441;48.886;8.728;2023-09-12T04:36:55;11.77;;;8.00;;
2866;SDS011;1441;48.886;8.728;2023-09-12T04:39:21;11.40;;;8.80;;
2866;SDS011;1441;48.886;8.728;2023-09-12T04:41:47;17.40;;;8.40;;
2866;SDS011;1441;48.886;8.728;2023-09-12T04:44:12;10.20;;;8.20;;
2866;SDS011;1441;48.886;8.728;2023-09-12T04:46:38;11.40;;;8.17;;
2866;SDS011;1441;48.886;8.728;2023-09-12T04:49:03;16.33;;;8.60;;
2866;SDS011;1441;48.886;8.728;2023-09-12T04:51:29;18.33;;;8.83;;
2866;SDS011;1441;48.886;8.728;2023-09-12T04:53:54;10.10;;;8.93;;
2866;SDS011;1441;48.886;8.728;2023-09-12T04:56:20;20.50;;;10.00;;
2866;SDS011;1441;48.886;8.728;2023-09-12T04:58:49;13.80;;;8.50;;
2866;SDS011;1441;48.886;8.728;2023-09-12T05:01:14;15.50;;;9.10;;
2866;SDS011;1441;48.886;8.728;2023-09-12T05:03:40;17.37;;;9.40;;
2866;SDS011;1441;48.886;8.728;2023-09-12T05:06:05;10.80;;;9.13;;
2866;SDS011;1441;48.886;8.728;2023-09-12T05:08:31;13.87;;;8.10;;
2866;SDS011;1441;48.886;8.728;2023-09-12T05:10:56;10.40;;;8.90;;
2866;SDS011;1441;48.886;8.728;2023-09-12T05:13:22;11.10;;;8.47;;
2866;SDS011;1441;48.886;8.728;2023-09-12T05:15:47;13.20;;;8.40;;
2866;SDS011;1441;48.886;8.728;2023-09-12T05:18:13;12.73;;;8.57;;
2866;SDS011;1441;48.886;8.728;2023-09-12T05:20:39;10.60;;;8.37;;
2866;SDS011;1441;48.886;8.728;2023-09-12T05:23:04;12.93;;;8.80;;
2866;SDS011;1441;48.886;8.728;2023-09-12T05:25:30;13.80;;;8.70;;
2866;SDS011;1441;48.886;8.728;2023-09-12T05:27:56;11.17;;;8.63;;
2866;SDS011;1441;48.886;8.728;2023-09-12T05:30:21;12.00;;;8.90;;
2866;SDS011;1441;48.886;8.728;2023-09-12T05:32:48;14.10;;;8.80;;
2866;SDS011;1441;48.886;8.728;2023-09-12T05:35:14;15.23;;;8.83;;
2866;SDS011;1441;48.886;8.728;2023-09-12T05:37:39;18.13;;;9.30;;
2866;SDS011;1441;48.886;8.728;2023-09-12T05:40:05;11.10;;;9.00;;
2866;SDS011;1441;48.886;8.728;2023-09-12T05:42:31;16.97;;;8.57;;
2866;SDS011;1441;48.886;8.728;2023-09-12T05:44:57;14.23;;;8.40;;
2866;SDS011;1441;48.886;8.728;2023-09-12T05:47:22;21.80;;;8.07;;
2866;SDS011;1441;48.886;8.728;2023-09-12T05:49:48;11.37;;;8.50;;
2866;SDS011;1441;48.886;8.728;2023-09-12T05:52:14;15.63;;;8.50;;
2866;SDS011;1441;48.886;8.728;2023-09-12T05:54:40;17.40;;;8.30;;
2866;SDS011;1441;48.886;8.728;2023-09-12T05:57:07;10.70;;;7.97;;
2866;SDS011;1441;48.886;8.728;2023-09-12T05:59:35;20.10;;;9.13;;
2866;SDS011;1441;48.886;8.728;2023-09-12T06:02:02;15.70;;;8.17;;
2866;SDS011;1441;48.886;8.728;2023-09-12T06:04:27;9.73;;;8.70;;
2866;SDS011;1441;48.886;8.728;2023-09-12T06:06:53;11.73;;;8.87;;
2866;SDS011;1441;48.886;8.728;2023-09-12T06:09:18;17.63;;;8.47;;
2866;SDS011;1441;48.886;8.728;2023-09-12T06:11:44;10.40;;;8.33;;
2866;SDS011;1441;48.886;8.728;2023-09-12T06:14:09;12.13;;;7.73;;
2866;SDS011;1441;48.886;8.728;2023-09-12T06:16:35;10.60;;;7.90;;
2866;SDS011;1441;48.886;8.728;2023-09-12T06:19:00;10.60;;;7.90;;
2866;SDS011;1441;48.886;8.728;2023-09-12T06:21:26;13.73;;;8.10;;
2866;SDS011;1441;48.886;8.728;2023-09-12T06:24:07;10.30;;;7.47;;
2866;SDS011;1441;48.886;8.728;2023-09-12T06:26:37;14.93;;;9.30;;
2866;SDS011;1441;48.886;8.728;2023-09-12T06:29:03;10.07;;;8.07;;
2866;SDS011;1441;48.886;8.728;2023-09-12T06:31:29;16.33;;;7.63;;
2866;SDS011;1441;48.886;8.728;2023-09-12T06:33:54;9.57;;;7.80;;
2866;SDS011;1441;48.886;8.728;2023-09-12T06:36:20;12.37;;;8.60;;
2866;SDS011;1441;48.886;8.728;2023-09-12T06:38:45;10.00;;;8.20;;
2866;SDS011;1441;48.886;8.728;2023-09-12T06:41:11;15.40;;;8.87;;
2866;SDS011;1441;48.886;8.728;2023-09-12T06:43:36;9.50;;;8.30;;
2866;SDS011;1441;48.886;8.728;2023-09-12T06:46:02;10.23;;;7.33;;
2866;SDS011;1441;48.886;8.728;2023-09-12T06:48:27;14.57;;;7.80;;
2866;SDS011;1441;48.886;8.728;2023-09-12T06:50:56;15.60;;;8.17;;
2866;SDS011;1441;48.886;8.728;2023-09-12T06:53:22;12.50;;;7.47;;
2866;SDS011;1441;48.886;8.728;2023-09-12T06:55:47;10.37;;;7.73;;
2866;SDS011;1441;48.886;8.728;2023-09-12T06:58:13;9.50;;;7.70;;
2866;SDS011;1441;48.886;8.728;2023-09-12T07:00:38;12.43;;;8.00;;
2866;SDS011;1441;48.886;8.728;2023-09-12T07:03:04;11.83;;;8.50;;
2866;SDS011;1441;48.886;8.728;2023-09-12T07:05:29;14.70;;;8.23;;
2866;SDS011;1441;48.886;8.728;2023-09-12T07:07:55;12.70;;;7.80;;
2866;SDS011;1441;48.886;8.728;2023-09-12T07:10:20;13.90;;;7.67;;
2866;SDS011;1441;48.886;8.728;2023-09-12T07:12:47;12.30;;;6.80;;
2866;SDS011;1441;48.886;8.728;2023-09-12T07:15:12;9.30;;;6.40;;
2866;SDS011;1441;48.886;8.728;2023-09-12T07:17:38;8.90;;;6.90;;
2866;SDS011;1441;48.886;8.728;2023-09-12T07:20:04;10.93;;;6.50;;
2866;SDS011;1441;48.886;8.728;2023-09-12T07:22:35;7.20;;;6.17;;
2866;SDS011;1441;48.886;8.728;2023-09-12T07:25:00;7.53;;;6.10;;
2866;SDS011;1441;48.886;8.728;2023-09-12T07:27:26;7.20;;;5.80;;
2866;SDS011;1441;48.886;8.728;2023-09-12T07:29:52;7.33;;;6.13;;
2866;SDS011;1441;48.886;8.728;2023-09-12T07:32:18;9.87;;;6.07;;
2866;SDS011;1441;48.886;8.728;2023-09-12T07:34:44;7.50;;;5.47;;
2866;SDS011;1441;48.886;8.728;2023-09-12T07:37:13;7.90;;;6.20;;
2866;SDS011;1441;48.886;8.728;2023-09-12T07:39:39;8.27;;;5.93;;
2866;SDS011;1441;48.886;8.728;2023-09-12T07:42:04;6.00;;;5.40;;
2866;SDS011;1441;48.886;8.728;2023-09-12T07:44:30;8.93;;;5.97;;
2866;SDS011;1441;48.886;8.728;2023-09-12T07:46:55;7.27;;;5.10;;
2866;SDS011;1441;48.886;8.728;2023-09-12T07:49:21;8.97;;;5.27;;
2866;SDS011;1441;48.886;8.728;2023-09-12T07:51:46;5.47;;;4.80;;
2866;SDS011;1441;48.886;8.728;2023-09-12T07:54:12;5.60;;;5.10;;
2866;SDS011;1441;48.886;8.728;2023-09-12T07:56:38;7.20;;;5.60;;
2866;SDS011;1441;48.886;8.728;2023-09-12T07:59:03;11.90;;;5.20;;
2866;SDS011;1441;48.886;8.728;2023-09-12T08:01:29;6.23;;;5.63;;
2866;SDS011;1441;48.886;8.728;2023-09-12T08:03:55;7.53;;;5.00;;
2866;SDS011;1441;48.886;8.728;2023-09-12T08:06:20;10.85;;;5.30;;
2866;SDS011;1441;48.886;8.728;2023-09-12T08:08:48;7.38;;;4.63;;
2866;SDS011;1441;48.886;8.728;2023-09-12T08:11:14;7.53;;;5.07;;
2866;SDS011;1441;48.886;8.728;2023-09-12T08:13:39;5.15;;;3.95;;
2866;SDS011;1441;48.886;8.728;2023-09-12T08:16:05;5.22;;;4.20;;
2866;SDS011;1441;48.886;8.728;2023-09-12T08:18:31;10.05;;;5.38;;
2866;SDS011;1441;48.886;8.728;2023-09-12T08:20:56;5.78;;;4.65;;
2866;SDS011;1441;48.886;8.728;2023-09-12T08:23:22;5.70;;;4.47;;
2866;SDS011;1441;48.886;8.728;2023-09-12T08:25:48;9.60;;;4.18;;
2866;SDS011;1441;48.886;8.728;2023-09-12T08:28:14;9.25;;;4.32;;
2866;SDS011;1441;48.886;8.728;2023-09-12T08:30:39;9.07;;;5.10;;
2866;SDS011;1441;48.886;8.728;2023-09-12T08:33:05;5.45;;;4.10;;
2866;SDS011;1441;48.886;8.728;2023-09-12T08:35:31;15.15;;;4.72;;
2866;SDS011;1441;48.886;8.728;2023-09-12T08:37:57;8.48;;;4.38;;
2866;SDS011;1441;48.886;8.728;2023-09-12T08:40:23;11.00;;;4.53;;
2866;SDS011;1441;48.886;8.728;2023-09-12T08:42:48;13.52;;;4.97;;
2866;SDS011;1441;48.886;8.728;2023-09-12T08:45:17;9.23;;;5.18;;
2866;SDS011;1441;48.886;8.728;2023-09-12T08:47:44;7.70;;;4.63;;
2866;SDS011;1441;48.886;8.728;2023-09-12T08:50:12;16.33;;;4.70;;
2866;SDS011;1441;48.886;8.728;2023-09-12T08:52:42;7.13;;;4.55;;
2866;SDS011;1441;48.886;8.728;2023-09-12T08:55:08;14.32;;;4.95;;
2866;SDS011;1441;48.886;8.728;2023-09-12T08:57:38;19.75;;;5.38;;
2866;SDS011;1441;48.886;8.728;2023-09-12T09:00:06;10.80;;;4.78;;
2866;SDS011;1441;48.886;8.728;2023-09-12T09:02:38;11.63;;;4.50;;
2866;SDS011;1441;48.886;8.728;2023-09-12T09:05:05;11.40;;;4.65;;
2866;SDS011;1441;48.886;8.728;2023-09-12T09:07:35;9.07;;;4.28;;
2866;SDS011;1441;48.886;8.728;2023-09-12T09:10:03;8.48;;;4.03;;
2866;SDS011;1441;48.886;8.728;2023-09-12T09:12:30;8.75;;;3.83;;
2866;SDS011;1441;48.886;8.728;2023-09-12T09:14:56;8.15;;;4.43;;
2866;SDS011;1441;48.886;8.728;2023-09-12T09:17:21;9.68;;;4.50;;
2866;SDS011;1441;48.886;8.728;2023-09-12T09:19:48;4.47;;;3.95;;
2866;SDS011;1441;48.886;8.728;2023-09-12T09:22:14;14.68;;;4.18;;
2866;SDS011;1441;48.886;8.728;2023-09-12T09:24:39;3.97;;;3.60;;
2866;SDS011;1441;48.886;8.728;2023-09-12T09:27:06;4.63;;;3.45;;
2866;SDS011;1441;48.886;8.728;2023-09-12T09:29:31;6.72;;;4.82;;
2866;SDS011;1441;48.886;8.728;2023-09-12T09:31:59;5.03;;;4.53;;
2866;SDS011;1441;48.886;8.728;2023-09-12T09:34:26;4.85;;;4.13;;
2866;SDS011;1441;48.886;8.728;2023-09-12T09:36:56;8.63;;;4.43;;
2866;SDS011;1441;48.886;8.728;2023-09-12T09:39:23;6.43;;;4.20;;
2866;SDS011;1441;48.886;8.728;2023-09-12T09:41:52;7.55;;;4.10;;
2866;SDS011;1441;48.886;8.728;2023-09-12T09:44:18;4.03;;;3.72;;
2866;SDS011;1441;48.886;8.728;2023-09-12T09:46:46;5.53;;;4.88;;
2866;SDS011;1441;48.886;8.728;2023-09-12T09:49:18;6.35;;;4.15;;
2866;SDS011;1441;48.886;8.728;2023-09-12T09:51:44;4.85;;;4.03;;
2866;SDS011;1441;48.886;8.728;2023-09-12T09:54:11;4.40;;;4.05;;
2866;SDS011;1441;48.886;8.728;2023-09-12T09:56:50;5.00;;;4.22;;
2866;SDS011;1441;48.886;8.728;2023-09-12T09:59:18;6.30;;;4.30;;
2866;SDS011;1441;48.886;8.728;2023-09-12T10:01:49;6.22;;;4.40;;
2866;SDS011;1441;48.886;8.728;2023-09-12T10:04:18;5.28;;;4.75;;
2866;SDS011;1441;48.886;8.728;2023-09-12T10:06:44;6.32;;;4.80;;
2866;SDS011;1441;48.886;8.728;2023-09-12T10:09:11;9.10;;;5.13;;
2866;SDS011;1441;48.886;8.728;2023-09-12T10:11:39;5.28;;;4.78;;
2866;SDS011;1441;48.886;8.728;2023-09-12T10:14:06;5.40;;;4.83;;
2866;SDS011;1441;48.886;8.728;2023-09-12T10:16:33;4.97;;;4.47;;
2866;SDS011;1441;48.886;8.728;2023-09-12T10:19:14;9.10;;;5.17;;
2866;SDS011;1441;48.886;8.728;2023-09-12T10:22:09;8.60;;;4.70;;
2866;SDS011;1441;48.886;8.728;2023-09-12T10:24:47;6.03;;;4.57;;
2866;SDS011;1441;48.886;8.728;2023-09-12T10:27:14;9.80;;;4.50;;
2866;SDS011;1441;48.886;8.728;2023-09-12T10:29:40;4.30;;;3.87;;
2866;SDS011;1441;48.886;8.728;2023-09-12T10:32:06;4.20;;;3.80;;
2866;SDS011;1441;48.886;8.728;2023-09-12T10:34:31;4.20;;;3.90;;
2866;SDS011;1441;48.886;8.728;2023-09-12T10:36:58;5.07;;;4.67;;
2866;SDS011;1441;48.886;8.728;2023-09-12T10:39:29;4.50;;;4.10;;
2866;SDS011;1441;48.886;8.728;2023-09-12T10:41:55;5.33;;;4.50;;
2866;SDS011;1441;48.886;8.728;2023-09-12T10:44:23;5.50;;;4.33;;
2866;SDS011;1441;48.886;8.728;2023-09-12T10:46:49;6.87;;;4.73;;
2866;SDS011;1441;48.886;8.728;2023-09-12T10:49:17;5.30;;;4.10;;
2866;SDS011;1441;48.886;8.728;2023-09-12T10:51:44;14.20;;;5.03;;
2866;SDS011;1441;48.886;8.728;2023-09-12T10:54:25;7.70;;;4.73;;
2866;SDS011;1441;48.886;8.728;2023-09-12T10:57:04;11.37;;;4.50;;
2866;SDS011;1441;48.886;8.728;2023-09-12T10:59:31;5.27;;;4.60;;
2866;SDS011;1441;48.886;8.728;2023-09-12T11:04:57;8.90;;;5.00;;
2866;SDS011;1441;48.886;8.728;2023-09-12T11:07:56;4.67;;;4.13;;
2866;SDS011;1441;48.886;8.728;2023-09-12T11:12:41;5.00;;;4.60;;
2866;SDS011;1441;48.886;8.728;2023-09-12T11:15:08;7.73;;;5.30;;
2866;SDS011;1441;48.886;8.728;2023-09-12T11:17:38;4.73;;;4.43;;
2866;SDS011;1441;48.886;8.728;2023-09-12T11:20:04;8.00;;;3.87;;
2866;SDS011;1441;48.886;8.728;2023-09-12T11:22:37;6.20;;;5.20;;
2866;SDS011;1441;48.886;8.728;2023-09-12T11:25:20;5.33;;;4.87;;
2866;SDS011;1441;48.886;8.728;2023-09-12T11:30:16;7.10;;;5.80;;
2866;SDS011;1441;48.886;8.728;2023-09-12T11:32:52;12.37;;;5.30;;
2866;SDS011;1441;48.886;8.728;2023-09-12T11:35:22;5.50;;;4.83;;
2866;SDS011;1441;48.886;8.728;2023-09-12T11:37:49;6.30;;;5.10;;
2866;SDS011;1441;48.886;8.728;2023-09-12T11:40:16;7.70;;;5.20;;
2866;SDS011;1441;48.886;8.728;2023-09-12T11:42:47;8.73;;;4.97;;
2866;SDS011;1441;48.886;8.728;2023-09-12T11:45:14;5.93;;;5.00;;
2866;SDS011;1441;48.886;8.728;2023-09-12T11:47:43;7.33;;;5.00;;
2866;SDS011;1441;48.886;8.728;2023-09-12T11:50:25;7.20;;;5.20;;
2866;SDS011;1441;48.886;8.728;2023-09-12T11:53:03;9.70;;;5.47;;
2866;SDS011;1441;48.886;8.728;2023-09-12T11:55:48;5.23;;;4.77;;
2866;SDS011;1441;48.886;8.728;2023-09-12T11:58:19;5.40;;;4.90;;
2866;SDS011;1441;48.886;8.728;2023-09-12T12:00:48;5.83;;;5.17;;
2866;SDS011;1441;48.886;8.728;2023-09-12T12:03:16;8.23;;;5.70;;
2866;SDS011;1441;48.886;8.728;2023-09-12T12:05:43;6.30;;;4.80;;
2866;SDS011;1441;48.886;8.728;2023-09-12T12:08:09;8.33;;;5.17;;
2866;SDS011;1441;48.886;8.728;2023-09-12T12:10:36;10.50;;;5.40;;
2866;SDS011;1441;48.886;8.728;2023-09-12T12:13:04;6.30;;;5.70;;
2866;SDS011;1441;48.886;8.728;2023-09-12T12:15:30;6.70;;;5.17;;
2866;SDS011;1441;48.886;8.728;2023-09-12T12:17:55;5.63;;;5.20;;
2866;SDS011;1441;48.886;8.728;2023-09-12T12:20:21;6.33;;;4.80;;
2866;SDS011;1441;48.886;8.728;2023-09-12T12:22:48;7.90;;;4.87;;
2866;SDS011;1441;48.886;8.728;2023-09-12T12:25:14;5.20;;;4.80;;
2866;SDS011;1441;48.886;8.728;2023-09-12T12:27:41;6.33;;;5.10;;
2866;SDS011;1441;48.886;8.728;2023-09-12T12:30:11;7.53;;;4.70;;
2866;SDS011;1441;48.886;8.728;2023-09-12T12:32:45;5.53;;;5.00;;
2866;SDS011;1441;48.886;8.728;2023-09-12T12:35:18;6.60;;;4.13;;
2866;SDS011;1441;48.886;8.728;2023-09-12T12:37:44;6.07;;;5.57;;
2866;SDS011;1441;48.886;8.728;2023-09-12T12:40:12;5.20;;;4.70;;
2866;SDS011;1441;48.886;8.728;2023-09-12T12:42:39;5.00;;;4.47;;
2866;SDS011;1441;48.886;8.728;2023-09-12T12:45:13;13.37;;;4.50;;
2866;SDS011;1441;48.886;8.728;2023-09-12T12:47:40;8.03;;;4.70;;
2866;SDS011;1441;48.886;8.728;2023-09-12T12:50:15;4.70;;;4.30;;
2866;SDS011;1441;48.886;8.728;2023-09-12T12:52:46;5.47;;;4.80;;
2866;SDS011;1441;48.886;8.728;2023-09-12T12:55:12;6.17;;;5.07;;
2866;SDS011;1441;48.886;8.728;2023-09-12T12:57:39;6.20;;;4.97;;
2866;SDS011;1441;48.886;8.728;2023-09-12T13:00:09;6.00;;;4.87;;
2866;SDS011;1441;48.886;8.728;2023-09-12T13:02:39;4.73;;;4.20;;
2866;SDS011;1441;48.886;8.728;2023-09-12T13:05:18;5.07;;;4.43;;
2866;SDS011;1441;48.886;8.728;2023-09-12T13:07:51;5.20;;;4.50;;
2866;SDS011;1441;48.886;8.728;2023-09-12T13:10:17;5.90;;;4.87;;
2866;SDS011;1441;48.886;8.728;2023-09-12T13:12:43;6.60;;;4.50;;
2866;SDS011;1441;48.886;8.728;2023-09-12T13:15:10;5.63;;;4.77;;
2866;SDS011;1441;48.886;8.728;2023-09-12T13:17:36;4.80;;;4.40;;
2866;SDS011;1441;48.886;8.728;2023-09-12T13:20:02;4.27;;;3.93;;
2866;SDS011;1441;48.886;8.728;2023-09-12T13:22:29;4.20;;;3.70;;
2866;SDS011;1441;48.886;8.728;2023-09-12T13:24:54;4.30;;;4.00;;
2866;SDS011;1441;48.886;8.728;2023-09-12T13:27:20;4.37;;;4.00;;
2866;SDS011;1441;48.886;8.728;2023-09-12T13:29:46;6.30;;;3.87;;
2866;SDS011;1441;48.886;8.728;2023-09-12T13:32:13;5.07;;;4.10;;
2866;SDS011;1441;48.886;8.728;2023-09-12T13:34:40;4.77;;;4.37;;
2866;SDS011;1441;48.886;8.728;2023-09-12T13:37:06;5.97;;;4.67;;
2866;SDS011;1441;48.886;8.728;2023-09-12T13:39:31;4.87;;;4.47;;
2866;SDS011;1441;48.886;8.728;2023-09-12T13:41:57;4.00;;;3.70;;
2866;SDS011;1441;48.886;8.728;2023-09-12T13:44:24;4.43;;;3.93;;
2866;SDS011;1441;48.886;8.728;2023-09-12T13:46:50;7.13;;;4.10;;
2866;SDS011;1441;48.886;8.728;2023-09-12T13:49:16;4.77;;;4.10;;
2866;SDS011;1441;48.886;8.728;2023-09-12T13:51:41;9.20;;;4.13;;
2866;SDS011;1441;48.886;8.728;2023-09-12T13:54:07;6.27;;;3.90;;
2866;SDS011;1441;48.886;8.728;2023-09-12T13:56:39;6.13;;;5.53;;
2866;SDS011;1441;48.886;8.728;2023-09-12T13:59:08;5.07;;;4.60;;
2866;SDS011;1441;48.886;8.728;2023-09-12T14:01:33;4.63;;;4.33;;
2866;SDS011;1441;48.886;8.728;2023-09-12T14:03:59;8.90;;;4.50;;
2866;SDS011;1441;48.886;8.728;2023-09-12T14:06:25;5.00;;;4.47;;
2866;SDS011;1441;48.886;8.728;2023-09-12T14:08:51;4.73;;;4.40;;
2866;SDS011;1441;48.886;8.728;2023-09-12T14:11:17;4.70;;;4.20;;
2866;SDS011;1441;48.886;8.728;2023-09-12T14:13:42;4.43;;;4.13;;
2866;SDS011;1441;48.886;8.728;2023-09-12T14:16:08;4.70;;;4.30;;
2866;SDS011;1441;48.886;8.728;2023-09-12T14:18:34;6.77;;;4.13;;
2866;SDS011;1441;48.886;8.728;2023-09-12T14:20:59;4.10;;;3.80;;
2866;SDS011;1441;48.886;8.728;2023-09-12T14:23:25;4.40;;;4.10;;
2866;SDS011;1441;48.886;8.728;2023-09-12T14:25:50;7.03;;;4.10;;
2866;SDS011;1441;48.886;8.728;2023-09-12T14:28:16;5.63;;;4.77;;
2866;SDS011;1441;48.886;8.728;2023-09-12T14:30:42;6.73;;;4.27;;
2866;SDS011;1441;48.886;8.728;2023-09-12T14:33:10;5.33;;;4.83;;
2866;SDS011;1441;48.886;8.728;2023-09-12T14:35:37;5.00;;;4.57;;
2866;SDS011;1441;48.886;8.728;2023-09-12T14:38:02;7.80;;;4.80;;
2866;SDS011;1441;48.886;8.728;2023-09-12T14:40:29;5.90;;;4.80;;
2866;SDS011;1441;48.886;8.728;2023-09-12T14:42:55;6.07;;;4.70;;
2866;SDS011;1441;48.886;8.728;2023-09-12T14:45:20;5.07;;;4.67;;
2866;SDS011;1441;48.886;8.728;2023-09-12T14:47:46;7.67;;;5.43;;
2866;SDS011;1441;48.886;8.728;2023-09-12T14:50:12;6.40;;;4.53;;
2866;SDS011;1441;48.886;8.728;2023-09-12T14:52:38;5.03;;;4.30;;
2866;SDS011;1441;48.886;8.728;2023-09-12T14:55:04;7.93;;;4.50;;
2866;SDS011;1441;48.886;8.728;2023-09-12T14:57:32;5.13;;;4.40;;
2866;SDS011;1441;48.886;8.728;2023-09-12T14:59:58;5.67;;;4.70;;
2866;SDS011;1441;48.886;8.728;2023-09-12T15:02:26;5.43;;;4.80;;
2866;SDS011;1441;48.886;8.728;2023-09-12T15:04:58;5.67;;;5.13;;
2866;SDS011;1441;48.886;8.728;2023-09-12T15:07:28;6.77;;;4.30;;
2866;SDS011;1441;48.886;8.728;2023-09-12T15:09:54;5.63;;;4.30;;
2866;SDS011;1441;48.886;8.728;2023-09-12T15:12:40;6.33;;;4.67;;
2866;SDS011;1441;48.886;8.728;2023-09-12T15:15:06;5.77;;;4.50;;
2866;SDS011;1441;48.886;8.728;2023-09-12T15:17:32;5.70;;;4.83;;
2866;SDS011;1441;48.886;8.728;2023-09-12T15:19:57;5.00;;;4.50;;
2866;SDS011;1441;48.886;8.728;2023-09-12T15:22:23;4.60;;;4.20;;